createdAt,value
2016-05-30T14:20:43.335Z,994.34
2016-05-30T14:21:43.228Z,994.32
2016-05-30T14:22:44.090Z,994.32
2016-05-30T14:23:43.218Z,994.25
2016-05-30T14:24:43.220Z,994.26
2016-05-30T14:25:43.192Z,994.18
2016-05-30T14:26:43.195Z,994.18
2016-05-30T14:27:43.181Z,994.17
2016-05-30T14:28:43.184Z,994.15
2016-05-30T14:29:43.187Z,994.23
2016-05-30T14:30:43.175Z,994.27
2016-05-30T14:31:43.178Z,994.29
2016-05-30T14:32:43.164Z,994.27
2016-05-30T14:33:43.167Z,994.27
2016-05-30T14:34:43.169Z,994.28
2016-05-30T14:35:43.157Z,994.22
2016-05-30T14:36:43.160Z,994.23
2016-05-30T14:37:43.163Z,994.27
2016-05-30T14:38:43.166Z,994.26
2016-05-30T14:39:43.152Z,994.29
2016-05-30T14:40:43.154Z,994.29
2016-05-30T14:41:43.157Z,994.32
2016-05-30T14:42:43.160Z,994.29
2016-05-30T14:43:43.163Z,994.3
2016-05-30T14:44:43.149Z,994.33
2016-05-30T14:45:43.152Z,994.33
2016-05-30T14:46:43.170Z,994.35
2016-05-30T14:47:43.158Z,994.3
2016-05-30T14:48:43.160Z,994.3
2016-05-30T14:49:43.162Z,994.27
2016-05-30T14:50:43.150Z,994.26
2016-05-30T14:51:43.153Z,994.23
2016-05-30T14:52:43.484Z,994.23
2016-05-30T14:53:43.159Z,994.19
2016-05-30T14:54:43.161Z,994.18
2016-05-30T14:55:43.164Z,994.19
2016-05-30T14:56:43.166Z,994.17
2016-05-30T14:57:43.169Z,994.13
2016-05-30T14:58:43.172Z,994.14
2016-05-30T14:59:43.175Z,994.14
2016-05-30T15:00:43.177Z,994.14
2016-05-30T15:01:43.180Z,994.11
2016-05-30T15:02:43.183Z,994.02
2016-05-30T15:03:43.169Z,993.99
2016-05-30T15:04:43.172Z,994
2016-05-30T15:05:43.174Z,994.03
2016-05-30T15:06:43.193Z,993.98
2016-05-30T15:07:43.180Z,993.98
2016-05-30T15:08:43.183Z,993.96
2016-05-30T15:09:43.389Z,993.96
2016-05-30T15:10:43.188Z,993.95
2016-05-30T15:11:43.191Z,993.93
2016-05-30T15:12:43.193Z,993.94
2016-05-30T15:13:43.196Z,993.95
2016-05-30T15:14:43.199Z,993.93
2016-05-30T15:15:43.202Z,993.89
2016-05-30T15:16:43.204Z,993.91
2016-05-30T15:17:43.207Z,993.86
2016-05-30T15:18:43.209Z,993.86
2016-05-30T15:19:43.196Z,993.9
2016-05-30T15:20:43.200Z,993.95
2016-05-30T15:21:43.202Z,993.9
2016-05-30T15:22:47.751Z,993.91
2016-05-30T15:23:43.239Z,993.87
2016-05-30T15:24:43.209Z,993.9
2016-05-30T15:25:43.213Z,993.85
2016-05-30T15:26:43.215Z,993.84
2016-05-30T15:27:48.125Z,993.84
2016-05-30T15:28:43.221Z,993.89
2016-05-30T15:29:43.208Z,993.8
2016-05-30T15:30:43.211Z,993.71
2016-05-30T15:31:43.213Z,993.74
2016-05-30T15:32:43.217Z,993.72
2016-05-30T15:33:43.219Z,993.72
2016-05-30T15:34:43.206Z,993.66
2016-05-30T15:35:43.208Z,993.7
2016-05-30T15:36:43.211Z,993.63
2016-05-30T15:37:43.214Z,993.65
2016-05-30T15:38:43.202Z,993.66
2016-05-30T15:39:45.454Z,993.71
2016-05-30T15:40:44.457Z,993.74
2016-05-30T15:41:43.209Z,993.73
2016-05-30T15:42:43.196Z,993.76
2016-05-30T15:43:43.199Z,993.82
2016-05-30T15:44:43.186Z,993.8
2016-05-30T15:45:43.189Z,993.83
2016-05-30T15:46:43.176Z,993.84
2016-05-30T15:47:43.178Z,993.8
2016-05-30T15:48:43.182Z,993.8
2016-05-30T15:49:43.168Z,993.77
2016-05-30T15:50:43.171Z,993.76
2016-05-30T15:51:43.157Z,993.78
2016-05-30T15:52:43.160Z,993.75
2016-05-30T15:53:43.163Z,993.79
2016-05-30T15:54:43.151Z,993.77
2016-05-30T15:55:43.153Z,993.8
2016-05-30T15:56:43.156Z,993.81
2016-05-30T15:57:43.143Z,993.8
2016-05-30T15:58:43.145Z,993.8
2016-05-30T15:59:43.134Z,993.81
2016-05-30T16:00:43.136Z,993.78
2016-05-30T16:01:43.138Z,993.8
2016-05-30T16:02:43.125Z,993.81
2016-05-30T16:03:43.127Z,993.82
2016-05-30T16:04:43.114Z,993.79
2016-05-30T16:05:43.118Z,993.84
2016-05-30T16:06:43.105Z,993.83
2016-05-30T16:07:43.107Z,993.84
2016-05-30T16:08:43.094Z,993.8
2016-05-30T16:09:43.097Z,993.82
2016-05-30T16:10:43.100Z,993.85
2016-05-30T16:11:43.086Z,993.8
2016-05-30T16:12:43.089Z,993.82
2016-05-30T16:13:43.076Z,993.78
2016-05-30T16:14:43.080Z,993.77
2016-05-30T16:15:43.082Z,993.76
2016-05-30T16:16:43.069Z,993.71
2016-05-30T16:17:43.071Z,993.68
2016-05-30T16:18:43.059Z,993.64
2016-05-30T16:19:43.062Z,993.66
2016-05-30T16:20:43.049Z,993.63
2016-05-30T16:21:43.051Z,993.61
2016-05-30T16:22:43.038Z,993.62
2016-05-30T16:23:43.275Z,993.61
2016-05-30T16:24:44.997Z,993.62
2016-05-30T16:25:43.031Z,993.66
2016-05-30T16:26:43.034Z,993.7
2016-05-30T16:27:43.021Z,993.68
2016-05-30T16:28:43.023Z,993.75
2016-05-30T16:29:43.009Z,993.76
2016-05-30T16:30:43.012Z,993.83
2016-05-30T16:31:43.000Z,993.91
2016-05-30T16:32:43.018Z,993.87
2016-05-30T16:33:43.005Z,993.88
2016-05-30T16:34:42.993Z,993.87
2016-05-30T16:35:42.995Z,993.88
2016-05-30T16:36:42.982Z,993.86
2016-05-30T16:37:42.985Z,993.83
2016-05-30T16:38:45.284Z,993.87
2016-05-30T16:39:42.975Z,993.89
2016-05-30T16:40:42.977Z,993.87
2016-05-30T16:41:42.964Z,993.86
2016-05-30T16:42:42.982Z,993.9
2016-05-30T16:43:42.970Z,993.89
2016-05-30T16:44:42.972Z,993.94
2016-05-30T16:45:42.960Z,993.91
2016-05-30T16:46:42.962Z,993.91
2016-05-30T16:47:42.965Z,993.97
2016-05-30T16:48:42.952Z,993.92
2016-05-30T16:49:42.955Z,993.97
2016-05-30T16:50:42.957Z,993.96
2016-05-30T16:51:42.944Z,993.91
2016-05-30T16:52:42.947Z,993.94
2016-05-30T16:53:43.528Z,993.94
2016-05-30T16:54:42.952Z,993.96
2016-05-30T16:55:42.940Z,993.96
2016-05-30T16:56:42.943Z,994.01
2016-05-30T16:57:42.929Z,993.97
2016-05-30T16:58:42.932Z,994.01
2016-05-30T16:59:42.934Z,993.98
2016-05-30T17:00:42.937Z,993.98
2016-05-30T17:01:42.939Z,994.02
2016-05-30T17:02:42.928Z,994.03
2016-05-30T17:03:42.931Z,994.02
2016-05-30T17:04:42.933Z,994.05
2016-05-30T17:05:42.920Z,994.11
2016-05-30T17:06:42.922Z,994.17
2016-05-30T17:07:42.956Z,994.15
2016-05-30T17:08:43.114Z,994.17
2016-05-30T17:09:42.914Z,994.2
2016-05-30T17:10:43.620Z,994.22
2016-05-30T17:11:46.139Z,994.2
2016-05-30T17:12:42.907Z,994.21
2016-05-30T17:13:42.910Z,994.2
2016-05-30T17:14:42.897Z,994.2
2016-05-30T17:15:42.900Z,994.23
2016-05-30T17:16:42.887Z,994.24
2016-05-30T17:17:42.874Z,994.28
2016-05-30T17:18:42.877Z,994.29
2016-05-30T17:19:42.879Z,994.32
2016-05-30T17:20:42.866Z,994.33
2016-05-30T17:21:42.869Z,994.37
2016-05-30T17:22:42.856Z,994.38
2016-05-30T17:23:44.749Z,994.44
2016-05-30T17:24:42.846Z,994.49
2016-05-30T17:25:42.848Z,994.47
2016-05-30T17:26:42.851Z,994.52
2016-05-30T17:27:42.838Z,994.53
2016-05-30T17:28:42.825Z,994.48
2016-05-30T17:29:42.828Z,994.45
2016-05-30T17:30:42.815Z,994.4
2016-05-30T17:31:42.818Z,994.46
2016-05-30T17:32:42.804Z,994.41
2016-05-30T17:33:42.807Z,994.45
2016-05-30T17:34:42.794Z,994.47
2016-05-30T17:35:42.797Z,994.54
2016-05-30T17:36:42.784Z,994.49
2016-05-30T17:37:42.787Z,994.54
2016-05-30T17:38:42.775Z,994.53
2016-05-30T17:39:42.777Z,994.5
2016-05-30T17:40:42.764Z,994.52
2016-05-30T17:41:42.766Z,994.52
2016-05-30T17:42:42.753Z,994.5
2016-05-30T17:43:42.740Z,994.51
2016-05-30T17:44:42.743Z,994.5
2016-05-30T17:45:42.730Z,994.52
2016-05-30T17:46:42.717Z,994.51
2016-05-30T17:47:42.720Z,994.47
2016-05-30T17:48:42.707Z,994.5
2016-05-30T17:49:42.710Z,994.52
2016-05-30T17:50:42.697Z,994.53
2016-05-30T17:51:42.700Z,994.52
2016-05-30T17:52:42.687Z,994.53
2016-05-30T17:53:42.690Z,994.52
2016-05-30T17:54:42.676Z,994.52
2016-05-30T17:55:42.663Z,994.49
2016-05-30T17:56:42.681Z,994.49
2016-05-30T17:57:42.654Z,994.46
2016-05-30T17:58:42.657Z,994.44
2016-05-30T17:59:42.643Z,994.51
2016-05-30T18:00:42.629Z,994.5
2016-05-30T18:01:43.133Z,994.55
2016-05-30T18:02:42.619Z,994.55
2016-05-30T18:03:42.622Z,994.55
2016-05-30T18:04:42.609Z,994.58
2016-05-30T18:05:42.597Z,994.6
2016-05-30T18:06:42.600Z,994.6
2016-05-30T18:07:42.586Z,994.6
2016-05-30T18:08:42.589Z,994.61
2016-05-30T18:09:42.576Z,994.61
2016-05-30T18:10:42.563Z,994.64
2016-05-30T18:11:42.566Z,994.64
2016-05-30T18:12:42.553Z,994.68
2016-05-30T18:13:42.556Z,994.67
2016-05-30T18:14:42.542Z,994.68
2016-05-30T18:15:42.530Z,994.69
2016-05-30T18:16:42.532Z,994.69
2016-05-30T18:17:42.520Z,994.73
2016-05-30T18:18:42.506Z,994.76
2016-05-30T18:19:42.525Z,994.76
2016-05-30T18:20:42.496Z,994.77
2016-05-30T18:21:42.499Z,994.79
2016-05-30T18:22:42.721Z,994.83
2016-05-30T18:23:42.473Z,994.86
2016-05-30T18:24:42.476Z,994.87
2016-05-30T18:25:42.463Z,994.85
2016-05-30T18:26:42.450Z,994.9
2016-05-30T18:27:42.452Z,994.91
2016-05-30T18:28:42.440Z,994.9
2016-05-30T18:29:42.443Z,994.91
2016-05-30T18:30:42.429Z,994.92
2016-05-30T18:31:42.417Z,994.97
2016-05-30T18:32:42.420Z,994.96
2016-05-30T18:33:42.406Z,994.95
2016-05-30T18:34:42.393Z,994.99
2016-05-30T18:35:42.396Z,994.99
2016-05-30T18:36:42.384Z,995.02
2016-05-30T18:37:42.401Z,995.04
2016-05-30T18:38:42.372Z,995.07
2016-05-30T18:39:42.360Z,995.03
2016-05-30T18:40:42.347Z,995.06
2016-05-30T18:41:42.349Z,995.08
2016-05-30T18:42:42.337Z,995.08
2016-05-30T18:43:42.324Z,995.06
2016-05-30T18:44:42.327Z,995.06
2016-05-30T18:45:42.314Z,995.05
2016-05-30T18:46:42.317Z,995.06
2016-05-30T18:47:42.303Z,995.04
2016-05-30T18:48:42.291Z,995.08
2016-05-30T18:49:42.278Z,995.02
2016-05-30T18:50:42.280Z,995.02
2016-05-30T18:51:42.267Z,995.03
2016-05-30T18:52:42.770Z,995.03
2016-05-30T18:53:42.647Z,995.03
2016-05-30T18:54:42.244Z,995.01
2016-05-30T18:55:42.246Z,995.05
2016-05-30T18:56:42.234Z,995.05
2016-05-30T18:57:42.220Z,995.01
2016-05-30T18:58:42.207Z,995.05
2016-05-30T18:59:42.211Z,995.09
2016-05-30T19:00:42.198Z,995.11
2016-05-30T19:01:42.185Z,995.1
2016-05-30T19:02:42.187Z,995.1
2016-05-30T19:03:42.174Z,995.11
2016-05-30T19:04:42.161Z,995.13
2016-05-30T19:05:42.164Z,995.15
2016-05-30T19:06:42.151Z,995.11
2016-05-30T19:07:42.139Z,995.11
2016-05-30T19:08:42.344Z,995.15
2016-05-30T19:09:42.128Z,995.13
2016-05-30T19:10:42.115Z,995.16
2016-05-30T19:11:42.117Z,995.16
2016-05-30T19:12:42.106Z,995.17
2016-05-30T19:13:42.092Z,995.15
2016-05-30T19:14:42.095Z,995.18
2016-05-30T19:15:42.082Z,995.18
2016-05-30T19:16:42.069Z,995.2
2016-05-30T19:17:42.055Z,995.2
2016-05-30T19:18:42.058Z,995.23
2016-05-30T19:19:42.046Z,995.24
2016-05-30T19:20:42.033Z,995.26
2016-05-30T19:21:42.036Z,995.27
2016-05-30T19:22:42.850Z,995.33
2016-05-30T19:23:42.010Z,995.34
2016-05-30T19:24:41.997Z,995.35
2016-05-30T19:25:42.000Z,995.42
2016-05-30T19:26:41.986Z,995.4
2016-05-30T19:27:41.988Z,995.45
2016-05-30T19:28:41.977Z,995.46
2016-05-30T19:29:41.979Z,995.47
2016-05-30T19:30:41.950Z,995.49
2016-05-30T19:31:41.954Z,995.49
2016-05-30T19:32:41.940Z,995.51
2016-05-30T19:33:41.927Z,995.47
2016-05-30T19:34:41.914Z,995.54
2016-05-30T19:35:42.042Z,995.53
2016-05-30T19:36:41.904Z,995.57
2016-05-30T19:37:42.140Z,995.61
2016-05-30T19:38:41.894Z,995.6
2016-05-30T19:39:41.881Z,995.58
2016-05-30T19:40:41.868Z,995.61
2016-05-30T19:41:41.855Z,995.6
2016-05-30T19:42:41.858Z,995.59
2016-05-30T19:43:41.845Z,995.57
2016-05-30T19:44:41.831Z,995.56
2016-05-30T19:45:41.819Z,995.61
2016-05-30T19:46:41.821Z,995.6
2016-05-30T19:47:41.825Z,995.57
2016-05-30T19:48:41.811Z,995.56
2016-05-30T19:49:41.798Z,995.57
2016-05-30T19:50:41.786Z,995.56
2016-05-30T19:51:41.772Z,995.6
2016-05-30T19:52:42.650Z,995.64
2016-05-30T19:53:41.763Z,995.66
2016-05-30T19:54:41.749Z,995.68
2016-05-30T19:55:41.736Z,995.68
2016-05-30T19:56:41.738Z,995.67
2016-05-30T19:57:41.727Z,995.7
2016-05-30T19:58:41.713Z,995.71
2016-05-30T19:59:41.699Z,995.66
2016-05-30T20:00:41.702Z,995.69
2016-05-30T20:01:42.971Z,995.67
2016-05-30T20:02:41.677Z,995.67
2016-05-30T20:03:41.664Z,995.66
2016-05-30T20:04:41.667Z,995.65
2016-05-30T20:05:41.654Z,995.67
2016-05-30T20:06:41.656Z,995.7
2016-05-30T20:07:42.003Z,995.72
2016-05-30T20:08:41.631Z,995.8
2016-05-30T20:09:41.618Z,995.76
2016-05-30T20:10:41.604Z,995.77
2016-05-30T20:11:41.607Z,995.8
2016-05-30T20:12:41.595Z,995.85
2016-05-30T20:13:41.582Z,995.8
2016-05-30T20:14:41.569Z,995.86
2016-05-30T20:15:41.571Z,995.85
2016-05-30T20:16:41.558Z,995.82
2016-05-30T20:17:41.546Z,995.83
2016-05-30T20:18:41.548Z,995.85
2016-05-30T20:19:41.566Z,995.85
2016-05-30T20:20:41.522Z,995.9
2016-05-30T20:21:41.509Z,995.87
2016-05-30T20:22:41.715Z,995.91
2016-05-30T20:23:41.500Z,995.9
2016-05-30T20:24:41.486Z,995.86
2016-05-30T20:25:41.473Z,995.88
2016-05-30T20:26:41.460Z,995.9
2016-05-30T20:27:41.447Z,995.91
2016-05-30T20:28:41.450Z,995.92
2016-05-30T20:29:41.437Z,995.91
2016-05-30T20:30:41.425Z,995.87
2016-05-30T20:31:41.427Z,995.9
2016-05-30T20:32:41.414Z,995.92
2016-05-30T20:33:41.401Z,995.91
2016-05-30T20:34:41.388Z,995.9
2016-05-30T20:35:41.375Z,995.92
2016-05-30T20:36:41.362Z,995.98
2016-05-30T20:37:41.365Z,995.93
2016-05-30T20:38:41.790Z,995.98
2016-05-30T20:39:41.339Z,995.94
2016-05-30T20:40:41.326Z,995.93
2016-05-30T20:41:41.313Z,995.91
2016-05-30T20:42:41.316Z,995.9
2016-05-30T20:43:41.303Z,995.9
2016-05-30T20:44:41.290Z,995.87
2016-05-30T20:45:41.292Z,995.83
2016-05-30T20:46:41.280Z,995.85
2016-05-30T20:47:41.267Z,995.87
2016-05-30T20:48:41.832Z,995.88
2016-05-30T20:49:41.257Z,995.85
2016-05-30T20:50:41.246Z,995.81
2016-05-30T20:51:41.253Z,995.81
2016-05-30T20:52:41.262Z,995.85
2016-05-30T20:53:41.271Z,995.8
2016-05-30T20:54:41.279Z,995.82
2016-05-30T20:55:41.302Z,995.8
2016-05-30T20:56:41.299Z,995.83
2016-05-30T20:57:41.293Z,995.79
2016-05-30T20:58:41.288Z,995.81
2016-05-30T20:59:41.283Z,995.79
2016-05-30T21:00:41.293Z,995.79
2016-05-30T21:01:41.283Z,995.8
2016-05-30T21:02:41.273Z,995.85
2016-05-30T21:03:41.263Z,995.9
2016-05-30T21:04:41.268Z,995.88
2016-05-30T21:05:41.258Z,995.94
2016-05-30T21:06:41.246Z,995.93
2016-05-30T21:07:41.235Z,995.99
2016-05-30T21:08:41.425Z,996.01
2016-05-30T21:09:41.226Z,996.05
2016-05-30T21:10:41.215Z,996.05
2016-05-30T21:11:41.202Z,996.07
2016-05-30T21:12:41.189Z,996.09
2016-05-30T21:13:41.177Z,996.12
2016-05-30T21:14:41.180Z,996.12
2016-05-30T21:15:41.167Z,996.1
2016-05-30T21:16:41.155Z,996.07
2016-05-30T21:17:41.158Z,996.08
2016-05-30T21:18:41.144Z,996.07
2016-05-30T21:19:41.131Z,996.14
2016-05-30T21:20:41.119Z,996.12
2016-05-30T21:21:41.122Z,996.11
2016-05-30T21:22:41.530Z,996.12
2016-05-30T21:23:41.095Z,996.18
2016-05-30T21:24:41.082Z,996.16
2016-05-30T21:25:41.085Z,996.19
2016-05-30T21:26:41.072Z,996.18
2016-05-30T21:27:41.059Z,996.17
2016-05-30T21:28:41.046Z,996.18
2016-05-30T21:29:41.049Z,996.2
2016-05-30T21:30:41.020Z,996.23
2016-05-30T21:31:41.024Z,996.25
2016-05-30T21:32:41.010Z,996.27
2016-05-30T21:33:40.996Z,996.24
2016-05-30T21:34:40.985Z,996.26
2016-05-30T21:35:40.971Z,996.27
2016-05-30T21:36:40.974Z,996.28
2016-05-30T21:37:40.976Z,996.3
2016-05-30T21:38:40.948Z,996.35
2016-05-30T21:39:40.982Z,996.33
2016-05-30T21:40:40.938Z,996.37
2016-05-30T21:41:40.926Z,996.34
2016-05-30T21:42:40.912Z,996.31
2016-05-30T21:43:40.898Z,996.34
2016-05-30T21:44:40.917Z,996.35
2016-05-30T21:45:40.873Z,996.34
2016-05-30T21:46:40.876Z,996.37
2016-05-30T21:47:40.863Z,996.35
2016-05-30T21:48:40.850Z,996.37
2016-05-30T21:49:40.837Z,996.35
2016-05-30T21:50:40.839Z,996.39
2016-05-30T21:51:40.827Z,996.4
2016-05-30T21:52:40.814Z,996.38
2016-05-30T21:53:40.801Z,996.38
2016-05-30T21:54:40.803Z,996.37
2016-05-30T21:55:40.791Z,996.38
2016-05-30T21:56:40.777Z,996.36
2016-05-30T21:57:40.765Z,996.39
2016-05-30T21:58:40.752Z,996.4
2016-05-30T21:59:40.739Z,996.4
2016-05-30T22:00:40.741Z,996.44
2016-05-30T22:01:40.729Z,996.46
2016-05-30T22:02:40.715Z,996.48
2016-05-30T22:03:40.702Z,996.51
2016-05-30T22:04:40.690Z,996.57
2016-05-30T22:05:40.692Z,996.55
2016-05-30T22:06:40.679Z,996.54
2016-05-30T22:07:40.667Z,996.55
2016-05-30T22:08:40.654Z,996.61
2016-05-30T22:09:40.641Z,996.58
2016-05-30T22:10:40.643Z,996.6
2016-05-30T22:11:40.631Z,996.59
2016-05-30T22:12:40.618Z,996.6
2016-05-30T22:13:40.620Z,996.62
2016-05-30T22:14:40.591Z,996.59
2016-05-30T22:15:40.579Z,996.62
2016-05-30T22:16:40.581Z,996.65
2016-05-30T22:17:40.584Z,996.64
2016-05-30T22:18:40.571Z,996.63
2016-05-30T22:19:40.542Z,996.62
2016-05-30T22:20:40.530Z,996.62
2016-05-30T22:21:40.532Z,996.63
2016-05-30T22:22:40.520Z,996.62
2016-05-30T22:23:40.506Z,996.63
2016-05-30T22:24:40.493Z,996.62
2016-05-30T22:25:40.480Z,996.69
2016-05-30T22:26:40.484Z,996.63
2016-05-30T22:27:40.471Z,996.69
2016-05-30T22:28:40.457Z,996.71
2016-05-30T22:29:40.444Z,996.72
2016-05-30T22:30:40.432Z,996.71
2016-05-30T22:31:40.418Z,996.69
2016-05-30T22:32:40.421Z,996.73
2016-05-30T22:33:40.408Z,996.75
2016-05-30T22:34:40.395Z,996.75
2016-05-30T22:35:40.398Z,996.79
2016-05-30T22:36:40.385Z,996.76
2016-05-30T22:37:40.716Z,996.83
2016-05-30T22:38:40.357Z,996.82
2016-05-30T22:39:40.344Z,996.85
2016-05-30T22:40:40.331Z,996.87
2016-05-30T22:41:40.318Z,996.89
2016-05-30T22:42:40.305Z,996.86
2016-05-30T22:43:40.307Z,996.87
2016-05-30T22:44:40.295Z,996.88
2016-05-30T22:45:40.281Z,996.9
2016-05-30T22:46:40.473Z,996.93
2016-05-30T22:47:40.256Z,996.91
2016-05-30T22:48:40.258Z,996.97
2016-05-30T22:49:40.245Z,996.97
2016-05-30T22:50:40.233Z,996.99
2016-05-30T22:51:40.220Z,997
2016-05-30T22:52:40.410Z,997.01
2016-05-30T22:53:40.194Z,997.01
2016-05-30T22:54:40.181Z,996.99
2016-05-30T22:55:40.169Z,997.03
2016-05-30T22:56:40.156Z,997.03
2016-05-30T22:57:40.158Z,997.03
2016-05-30T22:58:40.145Z,997.08
2016-05-30T22:59:40.132Z,997.06
2016-05-30T23:00:40.135Z,997.07
2016-05-30T23:01:40.106Z,997.11
2016-05-30T23:02:40.094Z,997.11
2016-05-30T23:03:40.096Z,997.18
2016-05-30T23:04:40.082Z,997.2
2016-05-30T23:05:40.070Z,997.15
2016-05-30T23:06:40.057Z,997.19
2016-05-30T23:07:40.044Z,997.19
2016-05-30T23:08:40.235Z,997.22
2016-05-30T23:09:40.034Z,997.21
2016-05-30T23:10:40.021Z,997.24
2016-05-30T23:11:40.008Z,997.19
2016-05-30T23:12:39.995Z,997.22
2016-05-30T23:13:39.982Z,997.22
2016-05-30T23:14:39.985Z,997.24
2016-05-30T23:15:39.972Z,997.27
2016-05-30T23:16:39.959Z,997.27
2016-05-30T23:17:39.945Z,997.32
2016-05-30T23:18:39.934Z,997.29
2016-05-30T23:19:39.936Z,997.29
2016-05-30T23:20:39.907Z,997.31
2016-05-30T23:21:39.910Z,997.29
2016-05-30T23:22:39.897Z,997.28
2016-05-30T23:23:39.883Z,997.25
2016-05-30T23:24:39.871Z,997.26
2016-05-30T23:25:39.859Z,997.27
2016-05-30T23:26:39.845Z,997.25
2016-05-30T23:27:39.832Z,997.29
2016-05-30T23:28:39.820Z,997.31
2016-05-30T23:29:39.822Z,997.38
2016-05-30T23:30:39.809Z,997.37
2016-05-30T23:31:39.796Z,997.36
2016-05-30T23:32:39.783Z,997.39
2016-05-30T23:33:39.786Z,997.37
2016-05-30T23:34:39.774Z,997.41
2016-05-30T23:35:39.760Z,997.42
2016-05-30T23:36:39.746Z,997.44
2016-05-30T23:37:39.734Z,997.46
2016-05-30T23:38:39.722Z,997.45
2016-05-30T23:39:39.708Z,997.44
2016-05-30T23:40:39.710Z,997.45
2016-05-30T23:41:39.698Z,997.39
2016-05-30T23:42:39.685Z,997.4
2016-05-30T23:43:39.672Z,997.38
2016-05-30T23:44:39.660Z,997.47
2016-05-30T23:45:39.662Z,997.45
2016-05-30T23:46:39.648Z,997.43
2016-05-30T23:47:39.637Z,997.42
2016-05-30T23:48:39.623Z,997.41
2016-05-30T23:49:39.610Z,997.41
2016-05-30T23:50:39.598Z,997.41
2016-05-30T23:51:39.584Z,997.4
2016-05-30T23:52:39.572Z,997.4
2016-05-30T23:53:39.558Z,997.42
2016-05-30T23:54:39.561Z,997.43
2016-05-30T23:55:39.548Z,997.39
2016-05-30T23:56:39.535Z,997.39
2016-05-30T23:57:39.522Z,997.35
2016-05-30T23:58:39.509Z,997.35
2016-05-30T23:59:39.496Z,997.33
